Flugplatz Pfarrkirchen (EDNP)

Hier findest Du alle Informationen zum Flugplatz Pfarrkirchen (EDNP).

Informationen für Piloten zum Flugplatz Pfarrkirchen

Hier findest Du alle relevanten Informationen, die Du als Pilot benötigst, um Pfarrkirchen anzufliegen.

Flugplatz: Pfarrkirchen ICAO-Code: EDNP
Frequenz Turm: 119,975 Mhz GAFOR Gebiet: 74
Frequenz Ground: 119,975 Mhz Mogas: nein
Platzrunde: N 2200 ft Landegebühr: -
Platzhöhe: - Sunrise: 03:05 Uhr UTC
Pisten: 07/25 - 700 m x 25 m, GRAS Sunset: 19:16 Uhr UTC

Mitglieder, die in Pfarrkirchen fliegen

Flugwetter am Flugplatz Pfarrkirchen

Die METAR Information stammen aus EDDM (79.91 km entfernt).

METAR Code:
2021/06/23 23:20
EDDM 232320Z 27007KT 9999 FEW050CB 16/15 Q1017 NOSIG

Flugschulen am Flugplatz Pfarrkirchen

Am Flugplatz Pfarrkirchen gibt es leider keine Flugschule.

Benachbarte Flugplätze und Flugschulen

Es gibt 13 weitere Flugplätze in einem Umkreis von 50 km um den Flugplatz Pfarrkirchen.

Jetzt anmelden

Passwort vergessen

Umfrage Archiv

Seid Ihr aufgrund von Corona im Jahr 2020 mehr oder weniger geflogen als im Jahr zuvor?

weniger
56.6 %
gleich viel
26 %
mehr
17.4 %
Stimmen: 258 | Diskussion
Anzeige: Roland Aircraft
Statistik Alle Mitglieder

Aktuell sind 37 Besucher online, davon 2 Mitglieder und 35 Gäste.


Mitglieder online:
Winair  SuperBabb 

Anzeige: VFR Sprechfunk Simulator Anzeige: Pocket FMS